EDSB METAR and TAF | Updated Today

EDSB METAR

Karlsruhe Baden-Baden Airport

Observation time: 30 min. ago

EDSB 050520Z 03008KT CAVOK 14/06 Q1017

Need help? Read our tutorial on how to read METARs or read the parsed version below.

Karlsruhe Baden-Baden Airport (EDSB) METAR

  • Weather conditions on Mon, 05 Jun 2023 05:20:00 +0000 (30 min. ago):
  • Present conditions: Dry
  • Clouds: Clear skies
  • Visibility: Greater than 10 km
  • Wind: 30 degrees at 8 knots
  • Temperature: 14 celsius
  • Dew point: 6 celsius
  • Pressure: 1017 millibars
  • Remarks: None


Useful to know...

EDSB TAF

Karlsruhe Baden-Baden Airport

TAF EDSB 042300Z 0500/0524 02008KT CAVOK
Observation time: 6:50 hr. ago
Need help? Read our tutorial on how to read TAFs or read the parsed version below.

Parsed version of TAF for Karlsruhe Baden-Baden Airport (EDSB)

  • From 05 June at 00:00 UTC, to day 05 of the month at 24:00 UTC
  • Visibility: Greater than 10 km
  • Wind: 20 degrees at 8

Airports near EDSB